createdAt,value
2023-01-30T00:01:34.800Z,7.63
2023-01-30T00:04:04.054Z,8.13
2023-01-30T00:06:31.664Z,9.10
2023-01-30T00:09:02.373Z,8.50
2023-01-30T00:11:32.001Z,8.20
2023-01-30T00:14:00.100Z,8.50
2023-01-30T00:16:27.771Z,8.40
2023-01-30T00:18:55.400Z,7.80
2023-01-30T00:21:24.398Z,7.87
2023-01-30T00:23:51.978Z,6.97
2023-01-30T00:26:19.917Z,7.33
2023-01-30T00:28:47.624Z,7.73
2023-01-30T00:31:15.226Z,8.30
2023-01-30T00:33:42.803Z,8.60
2023-01-30T00:36:11.540Z,7.83
2023-01-30T00:38:40.767Z,7.67
2023-01-30T00:41:08.471Z,7.57
2023-01-30T00:43:53.901Z,8.63
2023-01-30T00:46:46.643Z,7.13
2023-01-30T00:49:14.274Z,7.40
2023-01-30T00:51:41.858Z,7.60
2023-01-30T00:54:10.799Z,7.37
2023-01-30T00:56:39.172Z,7.70
2023-01-30T00:59:06.717Z,8.20
2023-01-30T01:01:34.581Z,8.30
2023-01-30T01:04:02.180Z,7.47
2023-01-30T01:06:29.857Z,8.17
2023-01-30T01:08:59.852Z,7.70
2023-01-30T01:11:30.081Z,7.43
2023-01-30T01:13:59.355Z,8.30
2023-01-30T01:16:28.722Z,8.00
2023-01-30T01:18:56.693Z,7.87
2023-01-30T01:21:24.921Z,7.97
2023-01-30T01:23:53.867Z,7.67
2023-01-30T01:26:21.784Z,8.03
2023-01-30T01:28:50.939Z,8.43
2023-01-30T01:31:18.614Z,7.90
2023-01-30T01:33:47.629Z,8.20
2023-01-30T01:36:29.248Z,8.40
2023-01-30T01:39:04.430Z,8.00
2023-01-30T01:41:31.283Z,8.70
2023-01-30T01:44:08.330Z,8.27
2023-01-30T01:46:41.438Z,8.53
2023-01-30T01:49:16.258Z,8.10
2023-01-30T01:51:49.807Z,7.50
2023-01-30T01:54:22.414Z,8.53
2023-01-30T01:56:50.745Z,8.03
2023-01-30T01:59:25.605Z,7.07
2023-01-30T02:01:56.891Z,7.53
2023-01-30T02:04:39.859Z,7.83
2023-01-30T02:07:07.823Z,8.00
2023-01-30T02:09:36.084Z,7.60
2023-01-30T02:12:05.417Z,8.77
2023-01-30T02:14:35.065Z,7.87
2023-01-30T02:17:02.610Z,7.60
2023-01-30T02:19:43.801Z,8.13
2023-01-30T02:22:33.756Z,6.73
2023-01-30T02:25:18.784Z,7.97
2023-01-30T02:28:18.866Z,7.90
2023-01-30T02:31:29.392Z,6.80
2023-01-30T02:34:12.498Z,7.70
2023-01-30T02:36:52.000Z,7.93
2023-01-30T02:39:32.557Z,7.83
2023-01-30T02:42:06.391Z,7.20
2023-01-30T02:44:38.602Z,8.07
2023-01-30T02:47:13.429Z,6.87
2023-01-30T02:49:47.575Z,7.60
2023-01-30T02:52:18.376Z,7.30
2023-01-30T02:54:46.161Z,6.50
2023-01-30T02:57:20.262Z,6.73
2023-01-30T02:59:52.681Z,8.03
2023-01-30T03:03:07.322Z,7.50
2023-01-30T03:05:51.500Z,6.73
2023-01-30T03:08:28.450Z,6.80
2023-01-30T03:11:01.745Z,8.23
2023-01-30T03:13:44.781Z,8.10
2023-01-30T03:16:17.342Z,8.33
2023-01-30T03:18:46.469Z,6.90
2023-01-30T03:21:15.678Z,7.30
2023-01-30T03:23:45.654Z,6.70
2023-01-30T03:26:19.141Z,7.63
2023-01-30T03:28:50.964Z,7.90
2023-01-30T03:31:18.858Z,9.00
2023-01-30T03:33:46.656Z,8.47
2023-01-30T03:36:23.165Z,6.80
2023-01-30T03:38:52.693Z,8.03
2023-01-30T03:41:20.375Z,7.27
2023-01-30T03:43:48.044Z,7.50
2023-01-30T03:46:15.678Z,7.30
2023-01-30T03:48:43.343Z,7.00
2023-01-30T03:51:10.919Z,7.00
2023-01-30T03:53:41.407Z,7.60
2023-01-30T03:56:09.104Z,7.50
2023-01-30T03:58:36.771Z,7.63
2023-01-30T04:01:04.582Z,7.40
2023-01-30T04:03:32.310Z,7.47
2023-01-30T04:05:59.942Z,8.40
2023-01-30T04:08:27.678Z,7.67
2023-01-30T04:10:56.544Z,7.60
2023-01-30T04:13:24.272Z,7.17
2023-01-30T04:15:51.842Z,7.23
2023-01-30T04:18:19.413Z,7.43
2023-01-30T04:20:47.046Z,7.90
2023-01-30T04:23:14.675Z,8.63
2023-01-30T04:25:42.326Z,7.83
2023-01-30T04:28:11.276Z,7.80
2023-01-30T04:30:39.262Z,8.53
2023-01-30T04:33:06.857Z,7.67
2023-01-30T04:35:34.448Z,9.17
2023-01-30T04:38:02.305Z,8.67
2023-01-30T04:40:29.969Z,8.63
2023-01-30T04:42:57.934Z,7.97
2023-01-30T04:45:30.504Z,8.77
2023-01-30T04:47:58.097Z,8.60
2023-01-30T04:50:25.833Z,8.60
2023-01-30T04:52:56.292Z,9.90
2023-01-30T04:55:24.050Z,8.60
2023-01-30T04:57:51.759Z,8.80
2023-01-30T05:00:20.076Z,8.10
2023-01-30T05:02:49.697Z,8.83
2023-01-30T05:05:17.879Z,8.20
2023-01-30T05:07:45.742Z,9.10
2023-01-30T05:10:13.377Z,10.27
2023-01-30T05:12:40.971Z,8.90
2023-01-30T05:15:09.484Z,9.10
2023-01-30T05:17:37.587Z,9.10
2023-01-30T05:20:08.458Z,9.37
2023-01-30T05:22:36.152Z,8.90
2023-01-30T05:25:03.715Z,16.87
2023-01-30T05:27:31.395Z,10.77
2023-01-30T05:29:58.967Z,12.10
2023-01-30T05:32:27.485Z,16.33
2023-01-30T05:34:55.127Z,9.70
2023-01-30T05:37:24.340Z,9.90
2023-01-30T05:39:52.021Z,8.93
2023-01-30T05:42:19.528Z,8.37
2023-01-30T05:44:51.734Z,7.97
2023-01-30T05:47:19.306Z,9.23
2023-01-30T05:49:46.888Z,8.57
2023-01-30T05:52:14.687Z,8.20
2023-01-30T05:54:43.820Z,7.83
2023-01-30T05:57:11.623Z,9.70
2023-01-30T05:59:39.340Z,10.53
2023-01-30T06:02:06.903Z,9.33
2023-01-30T06:04:35.450Z,8.40
2023-01-30T06:07:03.135Z,8.53
2023-01-30T06:09:30.705Z,8.50
2023-01-30T06:12:04.804Z,7.73
2023-01-30T06:14:32.449Z,8.47
2023-01-30T06:17:00.188Z,8.10
2023-01-30T06:19:27.761Z,8.50
2023-01-30T06:21:55.306Z,9.30
2023-01-30T06:24:23.759Z,8.23
2023-01-30T06:26:51.654Z,8.50
2023-01-30T06:29:20.804Z,9.07
2023-01-30T06:31:48.464Z,8.10
2023-01-30T06:34:16.139Z,7.90
2023-01-30T06:36:45.870Z,8.33
2023-01-30T06:39:13.493Z,8.80
2023-01-30T06:41:41.095Z,7.67
2023-01-30T06:44:09.808Z,8.20
2023-01-30T06:46:38.706Z,8.57
2023-01-30T06:49:06.376Z,9.00
2023-01-30T06:51:34.049Z,7.70
2023-01-30T06:54:01.871Z,8.47
2023-01-30T06:56:29.423Z,8.67
2023-01-30T06:58:58.543Z,6.70
2023-01-30T07:01:30.210Z,7.80
2023-01-30T07:04:00.660Z,6.83
2023-01-30T07:06:28.280Z,8.13
2023-01-30T07:09:00.739Z,8.20
2023-01-30T07:11:28.757Z,7.67
2023-01-30T07:13:56.577Z,6.10
2023-01-30T07:16:30.047Z,7.90
2023-01-30T07:19:02.071Z,8.00
2023-01-30T07:21:29.779Z,6.73
2023-01-30T07:23:57.851Z,7.00
2023-01-30T07:26:25.759Z,7.73
2023-01-30T07:28:53.428Z,7.20
2023-01-30T07:31:21.024Z,6.83
2023-01-30T07:33:48.648Z,8.50
2023-01-30T07:36:22.591Z,6.30
2023-01-30T07:38:50.307Z,6.97
2023-01-30T07:41:17.959Z,7.30
2023-01-30T07:43:45.549Z,6.93
2023-01-30T07:46:13.307Z,7.13
2023-01-30T07:48:40.973Z,6.30
2023-01-30T07:51:08.736Z,6.20
2023-01-30T07:53:37.929Z,6.93
2023-01-30T07:56:08.227Z,7.23
2023-01-30T07:58:36.125Z,6.93
2023-01-30T08:01:04.424Z,6.97
2023-01-30T08:03:32.152Z,7.13
2023-01-30T08:05:59.710Z,7.77
2023-01-30T08:08:27.347Z,6.90
2023-01-30T08:10:56.265Z,6.67
2023-01-30T08:13:23.913Z,7.10
2023-01-30T08:15:56.315Z,6.60
2023-01-30T08:18:24.313Z,7.17
2023-01-30T08:20:53.260Z,6.93
2023-01-30T08:23:21.270Z,6.50
2023-01-30T08:25:48.993Z,6.80
2023-01-30T08:28:17.967Z,6.23
2023-01-30T08:30:45.642Z,6.13
2023-01-30T08:33:14.405Z,6.53
2023-01-30T08:35:42.287Z,8.07
2023-01-30T08:38:10.664Z,6.00
2023-01-30T08:40:38.592Z,6.63
2023-01-30T08:43:07.046Z,6.10
2023-01-30T08:45:37.668Z,6.23
2023-01-30T08:48:07.409Z,5.70
2023-01-30T08:50:35.334Z,6.57
2023-01-30T08:53:07.234Z,5.80
2023-01-30T08:55:34.936Z,6.40
2023-01-30T08:58:02.581Z,6.60
2023-01-30T09:00:30.528Z,6.10
2023-01-30T09:03:00.532Z,4.83
2023-01-30T09:05:28.350Z,4.73
2023-01-30T09:07:56.114Z,5.33
2023-01-30T09:10:24.482Z,5.57
2023-01-30T09:12:52.136Z,5.50
2023-01-30T09:15:19.737Z,5.00
2023-01-30T09:17:47.404Z,4.80
2023-01-30T09:20:19.011Z,4.47
2023-01-30T09:22:46.869Z,4.80
2023-01-30T09:25:14.731Z,3.73
2023-01-30T09:27:44.430Z,4.27
2023-01-30T09:30:13.301Z,4.43
2023-01-30T09:32:40.943Z,4.17
2023-01-30T09:35:09.302Z,4.40
2023-01-30T09:37:38.308Z,4.13
2023-01-30T09:40:07.404Z,4.60
2023-01-30T09:42:51.685Z,3.63
2023-01-30T09:45:42.764Z,3.97
2023-01-30T09:48:17.998Z,3.53
2023-01-30T09:51:16.343Z,3.30
2023-01-30T09:54:00.990Z,3.23
2023-01-30T09:56:29.322Z,3.30
2023-01-30T09:58:59.489Z,2.83
2023-01-30T10:01:35.251Z,3.53
2023-01-30T10:04:12.100Z,3.10
2023-01-30T10:06:52.124Z,3.00
2023-01-30T10:09:34.684Z,2.67
2023-01-30T10:12:22.184Z,2.60
2023-01-30T10:15:15.594Z,2.30
2023-01-30T10:17:58.841Z,2.40
2023-01-30T10:20:41.974Z,2.30
2023-01-30T10:23:34.840Z,2.27
2023-01-30T10:26:10.437Z,2.70
2023-01-30T10:28:43.109Z,2.40
2023-01-30T10:31:16.002Z,1.77
2023-01-30T10:33:58.974Z,2.10
2023-01-30T10:36:33.877Z,1.70
2023-01-30T10:39:05.331Z,1.73
2023-01-30T10:41:37.786Z,1.83
2023-01-30T10:44:11.107Z,1.80
2023-01-30T10:46:55.344Z,1.93
2023-01-30T10:49:37.793Z,1.57
2023-01-30T10:52:20.031Z,1.87
2023-01-30T10:54:56.471Z,1.60
2023-01-30T10:57:37.608Z,1.67
2023-01-30T11:00:14.230Z,1.80
2023-01-30T11:02:54.221Z,1.50
2023-01-30T11:05:26.507Z,1.60
2023-01-30T11:07:54.413Z,1.70
2023-01-30T11:10:23.903Z,1.60
2023-01-30T11:12:56.930Z,1.40
2023-01-30T11:15:25.810Z,1.83
2023-01-30T11:18:33.446Z,1.40
2023-01-30T11:21:04.067Z,2.23
2023-01-30T11:23:35.527Z,1.40
2023-01-30T11:26:11.604Z,1.23
2023-01-30T11:28:44.846Z,1.53
2023-01-30T11:31:31.554Z,1.50
2023-01-30T11:34:16.006Z,1.67
2023-01-30T11:36:47.049Z,1.30
2023-01-30T11:39:29.075Z,1.40
2023-01-30T11:42:04.543Z,1.53
2023-01-30T11:44:43.234Z,1.40
2023-01-30T11:47:18.456Z,1.30
2023-01-30T11:50:01.928Z,1.50
2023-01-30T11:52:43.653Z,1.20
2023-01-30T11:55:16.033Z,1.30
2023-01-30T11:57:46.463Z,1.20
2023-01-30T12:00:20.635Z,1.40
2023-01-30T12:02:50.171Z,1.30
2023-01-30T12:05:26.390Z,1.27
2023-01-30T12:07:54.304Z,1.40
2023-01-30T12:10:32.037Z,1.63
2023-01-30T12:13:03.548Z,1.30
2023-01-30T12:15:34.124Z,1.40
2023-01-30T12:18:10.298Z,1.40
2023-01-30T12:20:50.379Z,1.27
2023-01-30T12:23:22.349Z,1.50
2023-01-30T12:25:59.509Z,1.30
2023-01-30T12:28:35.932Z,1.27
2023-01-30T12:31:12.755Z,1.57
2023-01-30T12:33:40.507Z,1.40
2023-01-30T12:36:22.815Z,2.00
2023-01-30T12:38:58.136Z,1.37
2023-01-30T12:41:40.428Z,1.50
2023-01-30T12:44:30.878Z,1.40
2023-01-30T12:47:16.199Z,1.70
2023-01-30T12:49:56.770Z,1.07
2023-01-30T12:52:42.340Z,1.40
2023-01-30T12:55:22.326Z,1.50
2023-01-30T12:57:55.461Z,1.40
2023-01-30T13:00:38.039Z,1.30
2023-01-30T13:03:23.532Z,1.30
2023-01-30T13:05:56.850Z,1.37
2023-01-30T13:08:38.472Z,1.40
2023-01-30T13:11:16.734Z,1.50
2023-01-30T13:13:52.627Z,1.43
2023-01-30T13:16:27.294Z,1.30
2023-01-30T13:19:01.054Z,1.30
2023-01-30T13:21:36.137Z,1.33
2023-01-30T13:24:15.436Z,1.00
2023-01-30T13:26:45.119Z,1.30
2023-01-30T13:29:17.184Z,1.13
2023-01-30T13:31:53.239Z,1.60
2023-01-30T13:34:29.343Z,1.47
2023-01-30T13:37:03.937Z,1.50
2023-01-30T13:39:42.282Z,1.10
2023-01-30T13:42:18.447Z,1.30
2023-01-30T13:44:49.074Z,1.20
2023-01-30T13:47:33.467Z,1.50
2023-01-30T13:50:23.038Z,1.47
2023-01-30T13:52:57.502Z,2.10
2023-01-30T13:55:34.527Z,1.37
2023-01-30T13:58:11.132Z,1.30
2023-01-30T14:00:38.830Z,1.67
2023-01-30T14:03:17.819Z,1.20
2023-01-30T14:06:12.921Z,1.70
2023-01-30T14:08:49.820Z,1.30
2023-01-30T14:11:34.596Z,1.83
2023-01-30T14:14:07.243Z,1.30
2023-01-30T14:16:46.411Z,1.40
2023-01-30T14:19:40.849Z,1.43
2023-01-30T14:22:26.434Z,1.43
2023-01-30T14:25:41.426Z,1.30
2023-01-30T14:28:49.382Z,1.33
2023-01-30T14:31:48.674Z,1.23
2023-01-30T14:34:47.993Z,1.60
2023-01-30T14:37:31.075Z,1.43
2023-01-30T14:40:02.468Z,1.37
2023-01-30T14:42:32.266Z,1.33
2023-01-30T14:45:04.861Z,1.30
2023-01-30T14:47:42.519Z,1.37
2023-01-30T14:50:27.530Z,1.50
2023-01-30T14:52:57.716Z,1.07
2023-01-30T14:55:29.405Z,1.43
2023-01-30T14:58:01.293Z,1.60
2023-01-30T15:00:32.311Z,1.73
2023-01-30T15:03:03.068Z,1.77
2023-01-30T15:05:33.691Z,1.50
2023-01-30T15:08:10.576Z,1.50
2023-01-30T15:11:05.446Z,1.60
2023-01-30T15:14:07.484Z,1.40
2023-01-30T15:16:53.069Z,1.50
2023-01-30T15:19:44.911Z,1.20
2023-01-30T15:22:21.945Z,1.80
2023-01-30T15:25:25.332Z,1.70
2023-01-30T15:28:03.438Z,1.50
2023-01-30T15:30:46.244Z,1.77
2023-01-30T15:33:29.468Z,1.63
2023-01-30T15:35:58.005Z,1.57
2023-01-30T15:38:29.258Z,1.37
2023-01-30T15:41:01.700Z,2.40
2023-01-30T15:44:02.346Z,2.10
2023-01-30T15:46:42.477Z,1.63
2023-01-30T15:49:32.103Z,2.70
2023-01-30T15:52:03.815Z,1.80
2023-01-30T15:54:32.017Z,1.60
2023-01-30T15:57:02.838Z,1.70
2023-01-30T15:59:34.994Z,1.70
2023-01-30T16:02:08.586Z,2.03
2023-01-30T16:04:36.341Z,2.60
2023-01-30T16:07:15.644Z,1.93
2023-01-30T16:09:49.593Z,1.57
2023-01-30T16:12:28.298Z,1.80
2023-01-30T16:15:05.656Z,2.00
2023-01-30T16:17:45.490Z,2.00
2023-01-30T16:20:16.563Z,1.87
2023-01-30T16:22:48.052Z,1.83
2023-01-30T16:25:23.266Z,1.80
2023-01-30T16:27:53.640Z,2.57
2023-01-30T16:30:24.598Z,1.70
2023-01-30T16:32:54.735Z,1.90
2023-01-30T16:35:34.269Z,1.80
2023-01-30T16:38:04.002Z,2.03
2023-01-30T16:40:43.425Z,1.50
2023-01-30T16:43:21.625Z,1.90
2023-01-30T16:46:20.144Z,1.90
2023-01-30T16:48:49.348Z,1.97
2023-01-30T16:51:23.714Z,1.60
2023-01-30T16:53:56.815Z,1.87
2023-01-30T16:56:24.814Z,1.77
2023-01-30T16:59:00.502Z,2.00
2023-01-30T17:01:40.970Z,2.07
2023-01-30T17:04:19.762Z,2.67
2023-01-30T17:07:04.306Z,1.73
2023-01-30T17:09:56.601Z,1.43
2023-01-30T17:12:53.244Z,1.67
2023-01-30T17:15:36.573Z,1.90
2023-01-30T17:18:04.454Z,1.67
2023-01-30T17:20:43.093Z,1.97
2023-01-30T17:23:18.122Z,1.20
2023-01-30T17:25:49.549Z,1.43
2023-01-30T17:28:24.376Z,1.90
2023-01-30T17:30:57.473Z,2.07
2023-01-30T17:33:25.836Z,2.07
2023-01-30T17:35:53.481Z,2.60
2023-01-30T17:38:21.281Z,1.73
2023-01-30T17:40:52.329Z,2.57
2023-01-30T17:43:19.953Z,1.60
2023-01-30T17:45:48.119Z,2.10
2023-01-30T17:48:17.050Z,2.20
2023-01-30T17:50:44.675Z,1.90
2023-01-30T17:53:12.264Z,1.83
2023-01-30T17:55:40.556Z,1.83
2023-01-30T17:58:08.264Z,2.40
2023-01-30T18:00:35.992Z,2.80
2023-01-30T18:03:03.579Z,2.10
2023-01-30T18:05:32.551Z,2.77
2023-01-30T18:08:00.268Z,2.20
2023-01-30T18:10:28.306Z,1.70
2023-01-30T18:12:55.945Z,2.00
2023-01-30T18:15:25.410Z,2.27
2023-01-30T18:17:55.441Z,2.60
2023-01-30T18:20:40.190Z,2.70
2023-01-30T18:23:12.643Z,2.03
2023-01-30T18:26:01.499Z,2.20
2023-01-30T18:28:29.252Z,2.40
2023-01-30T18:30:57.751Z,2.30
2023-01-30T18:33:26.036Z,2.40
2023-01-30T18:35:53.649Z,2.27
2023-01-30T18:38:22.601Z,2.27
2023-01-30T18:40:50.351Z,3.53
2023-01-30T18:43:17.917Z,2.57
2023-01-30T18:45:45.480Z,2.50
2023-01-30T18:48:13.009Z,2.40
2023-01-30T18:50:40.661Z,1.87
2023-01-30T18:53:08.454Z,2.50
2023-01-30T18:55:37.422Z,2.27
2023-01-30T18:58:04.983Z,2.43
2023-01-30T19:00:32.604Z,2.70
2023-01-30T19:03:00.233Z,2.60
2023-01-30T19:05:27.843Z,2.50
2023-01-30T19:07:55.592Z,2.87
2023-01-30T19:10:23.177Z,2.73
2023-01-30T19:13:09.909Z,2.40
2023-01-30T19:15:40.109Z,3.10
2023-01-30T19:18:07.916Z,2.73
2023-01-30T19:20:36.206Z,2.67
2023-01-30T19:23:04.234Z,2.00
2023-01-30T19:25:31.998Z,2.40
2023-01-30T19:28:00.961Z,2.07
2023-01-30T19:30:29.495Z,1.90
2023-01-30T19:32:59.296Z,2.80
2023-01-30T19:35:27.387Z,2.50
2023-01-30T19:38:00.193Z,4.43
2023-01-30T19:40:27.907Z,2.47
2023-01-30T19:42:59.634Z,1.60
2023-01-30T19:45:34.575Z,2.43
2023-01-30T19:48:02.228Z,3.00
2023-01-30T19:50:29.842Z,2.33
2023-01-30T19:52:57.571Z,2.60
2023-01-30T19:55:25.927Z,2.47
2023-01-30T19:57:53.904Z,2.40
2023-01-30T20:00:22.616Z,2.40
2023-01-30T20:02:52.460Z,2.50
2023-01-30T20:05:21.002Z,2.77
2023-01-30T20:07:49.776Z,1.90
2023-01-30T20:10:18.881Z,2.00
2023-01-30T20:12:48.022Z,2.23
2023-01-30T20:15:16.983Z,2.57
2023-01-30T20:17:44.811Z,2.43
2023-01-30T20:20:14.052Z,2.60
2023-01-30T20:22:42.719Z,2.53
2023-01-30T20:25:11.285Z,8.60
2023-01-30T20:27:39.380Z,5.30
2023-01-30T20:30:08.604Z,3.37
2023-01-30T20:32:36.642Z,3.60
2023-01-30T20:35:04.378Z,2.70
2023-01-30T20:37:33.590Z,2.63
2023-01-30T20:40:01.287Z,2.77
2023-01-30T20:42:29.160Z,2.90
2023-01-30T20:44:56.847Z,3.97
2023-01-30T20:47:24.482Z,2.83
2023-01-30T20:49:52.342Z,2.90
2023-01-30T20:52:20.560Z,2.27
2023-01-30T20:54:49.553Z,2.17
2023-01-30T20:57:17.840Z,2.40
2023-01-30T20:59:46.691Z,4.13
2023-01-30T21:02:14.498Z,2.40
2023-01-30T21:04:43.824Z,3.00
2023-01-30T21:07:11.435Z,2.20
2023-01-30T21:09:39.510Z,3.27
2023-01-30T21:12:09.070Z,3.07
2023-01-30T21:14:37.008Z,2.40
2023-01-30T21:17:05.036Z,2.57
2023-01-30T21:19:32.726Z,2.33
2023-01-30T21:22:07.412Z,2.27
2023-01-30T21:24:35.257Z,2.13
2023-01-30T21:27:02.876Z,2.10
2023-01-30T21:29:32.587Z,3.07
2023-01-30T21:32:00.295Z,4.20
2023-01-30T21:34:27.967Z,6.40
2023-01-30T21:37:13.646Z,6.10
2023-01-30T21:39:59.075Z,3.33
2023-01-30T21:42:44.831Z,2.37
2023-01-30T21:45:15.356Z,1.90
2023-01-30T21:47:42.990Z,2.23
2023-01-30T21:50:11.862Z,3.07
2023-01-30T21:52:40.069Z,2.17
2023-01-30T21:55:08.509Z,2.70
2023-01-30T21:57:36.585Z,2.67
2023-01-30T22:00:05.183Z,2.47
2023-01-30T22:02:34.421Z,2.07
2023-01-30T22:05:02.115Z,2.37
2023-01-30T22:07:29.895Z,1.77
2023-01-30T22:09:58.112Z,2.10
2023-01-30T22:12:26.483Z,1.80
2023-01-30T22:14:54.810Z,1.83
2023-01-30T22:17:22.508Z,2.40
2023-01-30T22:19:51.498Z,2.10
2023-01-30T22:22:20.583Z,2.30
2023-01-30T22:24:48.320Z,3.20
2023-01-30T22:27:17.080Z,2.23
2023-01-30T22:29:47.014Z,1.87
2023-01-30T22:32:14.577Z,1.90
2023-01-30T22:34:42.258Z,3.00
2023-01-30T22:37:11.209Z,2.40
2023-01-30T22:39:38.832Z,1.83
2023-01-30T22:42:08.615Z,2.60
2023-01-30T22:44:37.395Z,1.90
2023-01-30T22:47:05.168Z,2.00
2023-01-30T22:49:32.828Z,1.60
2023-01-30T22:52:01.746Z,2.33
2023-01-30T22:54:31.026Z,1.33
2023-01-30T22:56:58.839Z,2.43
2023-01-30T22:59:26.464Z,2.53
2023-01-30T23:01:54.552Z,2.57
2023-01-30T23:04:24.032Z,2.67
2023-01-30T23:06:52.735Z,1.73
2023-01-30T23:09:22.108Z,1.83
2023-01-30T23:12:06.685Z,2.30
2023-01-30T23:14:34.804Z,2.70
2023-01-30T23:17:23.852Z,2.03
2023-01-30T23:19:50.527Z,2.43
2023-01-30T23:22:18.618Z,2.53
2023-01-30T23:24:48.559Z,2.03
2023-01-30T23:27:17.762Z,2.13
2023-01-30T23:29:45.401Z,1.97
2023-01-30T23:32:13.019Z,1.63
2023-01-30T23:34:40.585Z,2.17
2023-01-30T23:37:08.163Z,1.83
2023-01-30T23:39:35.761Z,1.70
2023-01-30T23:42:03.832Z,2.40
2023-01-30T23:44:32.740Z,2.73
2023-01-30T23:47:00.486Z,1.87
2023-01-30T23:49:30.593Z,2.00
2023-01-30T23:51:58.177Z,2.33
2023-01-30T23:54:25.908Z,1.90
2023-01-30T23:56:55.495Z,1.60
2023-01-30T23:59:23.081Z,2.10
